Time;durP1;ratioP1;P1;durP2;ratioP2;P2;SDS_P1;SDS_P2;PMS_P1;PMS_P2;Temp;Humidity;BMP_temperature;BMP_pressure;BME280_temperature;BME280_humidity;BME280_pressure;Samples;Min_cycle;Max_cycle;Signal;HPM_P1;HPM_P2
2021/10/24 00:00:22;;;;;;;;;25.00;24.00;;;;;-146.37;100.00;59337.28;6283257;22;44793;-84
2021/10/24 00:02:49;;;;;;;;;20.00;18.33;;;;;-146.37;100.00;59337.28;6255617;22;44804;-84
2021/10/24 00:05:17;;;;;;;;;32.00;28.67;;;;;-146.37;100.00;59337.28;6254576;22;47110;-84
2021/10/24 00:07:43;;;;;;;;;27.33;26.33;;;;;-146.37;100.00;59337.28;6254497;22;45354;-83
2021/10/24 00:10:08;;;;;;;;;27.00;27.00;;;;;-146.37;100.00;59337.28;6282263;22;45665;-84
2021/10/24 00:12:34;;;;;;;;;25.33;22.00;;;;;-146.37;100.00;59337.28;6257525;22;45300;-83
2021/10/24 00:15:02;;;;;;;;;24.33;24.33;;;;;-146.37;100.00;59337.28;6285727;22;46408;-82
2021/10/24 00:17:30;;;;;;;;;27.00;25.33;;;;;-146.37;100.00;59337.28;6256284;22;45344;-83
2021/10/24 00:20:04;;;;;;;;;24.67;24.67;;;;;-146.37;100.00;59337.28;6258332;22;45323;-83
2021/10/24 00:22:32;;;;;;;;;29.67;27.00;;;;;-146.37;100.00;59337.28;6285403;22;45510;-83
2021/10/24 00:24:58;;;;;;;;;30.00;26.00;;;;;-146.37;100.00;59337.28;6256122;22;47004;-83
2021/10/24 00:27:26;;;;;;;;;26.00;25.00;;;;;-146.37;100.00;59337.28;6258295;22;45616;-83
2021/10/24 00:29:52;;;;;;;;;28.33;24.67;;;;;-146.37;100.00;59337.28;6280007;22;45441;-83
2021/10/24 00:32:23;;;;;;;;;28.33;24.33;;;;;-146.37;100.00;59337.28;6254763;22;45347;-83
2021/10/24 00:35:01;;;;;;;;;;;;;;;;;;;;;
2021/10/24 00:40:59;;;;;;;;;22.33;21.00;;;;;-146.37;100.00;59337.28;6283790;22;45410;-83
2021/10/24 00:43:34;;;;;;;;;22.67;20.67;;;;;-146.37;100.00;59337.28;6280550;22;45494;-82
2021/10/24 00:45:59;;;;;;;;;24.33;22.00;;;;;-146.37;100.00;59337.28;6257714;22;45516;-83
2021/10/24 00:48:28;;;;;;;;;27.00;26.00;;;;;-146.37;100.00;59337.28;6257320;22;45362;-82
2021/10/24 00:50:56;;;;;;;;;27.00;25.00;;;;;-146.37;100.00;59337.28;6283928;22;45451;-82
2021/10/24 00:53:22;;;;;;;;;25.00;24.00;;;;;-146.37;100.00;59337.28;6283649;22;45348;-82
2021/10/24 00:55:48;;;;;;;;;21.00;21.00;;;;;-146.37;100.00;59337.28;6257380;22;47486;-82
2021/10/24 00:58:19;;;;;;;;;22.33;18.67;;;;;-146.37;100.00;59337.28;6284195;22;45781;-82
2021/10/24 01:04:15;;;;;;;;;24.67;24.33;;;;;-146.37;100.00;59337.28;6261004;22;45973;-82
2021/10/24 01:07:01;;;;;;;;;;;;;;;;;;;;;
2021/10/24 01:09:30;;;;;;;;;23.67;19.33;;;;;-146.37;100.00;59337.28;6281069;22;72724;-82
2021/10/24 01:12:01;;;;;;;;;23.33;23.00;;;;;-146.37;100.00;59337.28;6256529;22;45379;-81
2021/10/24 01:14:31;;;;;;;;;25.00;24.67;;;;;-146.37;100.00;59337.28;6255248;22;45476;-83
2021/10/24 01:16:59;;;;;;;;;18.33;18.33;;;;;-146.37;100.00;59337.28;6283270;22;45400;-82
2021/10/24 01:19:33;;;;;;;;;23.67;21.00;;;;;-146.37;100.00;59337.28;6254802;22;45397;-82
2021/10/24 01:21:59;;;;;;;;;21.33;19.33;;;;;-146.37;100.00;59337.28;6280990;22;45591;-82
2021/10/24 01:24:47;;;;;;;;;20.33;20.33;;;;;-146.37;100.00;59337.28;6282844;22;45508;-83
2021/10/24 01:27:33;;;;;;;;;19.33;18.33;;;;;-146.37;100.00;59337.28;6257556;22;47772;-83
2021/10/24 01:30:01;;;;;;;;;19.67;19.67;;;;;-146.37;100.00;59337.28;6255313;22;45461;-82
2021/10/24 01:32:35;;;;;;;;;20.67;20.67;;;;;-146.37;100.00;59337.28;6255802;22;45174;-82
2021/10/24 01:38:09;;;;;;;;;18.67;16.33;;;;;-146.37;100.00;59337.28;6187618;22;45409;-83
2021/10/24 01:41:02;;;;;;;;;19.00;17.00;;;;;-146.37;100.00;59337.28;6161474;23;45398;-82
2021/10/24 01:43:39;;;;;;;;;;;;;;;;;;;;;
2021/10/24 01:46:05;;;;;;;;;22.33;18.33;;;;;-146.37;100.00;59337.28;6184393;22;65781;-83
2021/10/24 01:48:34;;;;;;;;;22.33;18.33;;;;;-146.37;100.00;59337.28;6187320;22;45443;-83
2021/10/24 01:51:03;;;;;;;;;20.00;20.00;;;;;-146.37;100.00;59337.28;6169406;23;45566;-82
2021/10/24 01:53:41;;;;;;;;;22.33;19.00;;;;;-146.37;100.00;59337.28;6165524;22;45328;-83
2021/10/24 01:56:14;;;;;;;;;17.67;17.67;;;;;-146.37;100.00;59337.28;6163281;23;45556;-83
2021/10/24 01:58:45;;;;;;;;;20.33;20.00;;;;;-146.37;100.00;59337.28;6189587;22;46075;-83
2021/10/24 02:01:11;;;;;;;;;18.67;18.67;;;;;-146.37;100.00;59337.28;6163770;23;45349;-83
2021/10/24 02:03:47;;;;;;;;;23.33;19.67;;;;;-146.37;100.00;59337.28;6191147;22;45747;-83
2021/10/24 02:06:12;;;;;;;;;21.67;19.33;;;;;-146.37;100.00;59337.28;6162975;22;45751;-83
2021/10/24 02:08:45;;;;;;;;;17.33;15.33;;;;;-146.37;100.00;59337.28;6163018;23;47022;-83
2021/10/24 02:11:11;;;;;;;;;15.33;14.67;;;;;-146.37;100.00;59337.28;6187952;22;45570;-83
2021/10/24 02:13:37;;;;;;;;;16.33;16.33;;;;;-146.37;100.00;59337.28;6187580;22;45434;-83
2021/10/24 02:16:03;;;;;;;;;20.33;20.33;;;;;-146.37;100.00;59337.28;6277126;22;45451;-83
2021/10/24 02:19:10;;;;;;;;;20.33;19.33;;;;;-146.37;100.00;59337.28;6257476;22;46650;-83
2021/10/24 02:21:57;;;;;;;;;19.33;17.67;;;;;-146.37;100.00;59337.28;6133455;23;45507;-83
2021/10/24 02:24:25;;;;;;;;;29.00;26.00;;;;;-146.37;100.00;59337.28;6161117;23;45505;-82
2021/10/24 02:27:28;;;;;;;;;25.33;24.67;;;;;-146.37;100.00;59337.28;6134123;23;45400;-83
2021/10/24 02:29:56;;;;;;;;;24.00;22.67;;;;;-146.37;100.00;59337.28;6159240;23;46785;-82
2021/10/24 02:32:25;;;;;;;;;20.67;20.33;;;;;-146.37;100.00;59337.28;6158096;23;45488;-82
2021/10/24 02:34:50;;;;;;;;;21.67;20.00;;;;;-146.37;100.00;59337.28;6132229;23;45487;-82
2021/10/24 02:37:16;;;;;;;;;19.33;19.33;;;;;-146.37;100.00;59337.28;6159442;23;45485;-83
2021/10/24 02:39:43;;;;;;;;;20.33;20.33;;;;;-146.37;100.00;59337.28;6159753;23;45419;-82
2021/10/24 02:42:09;;;;;;;;;23.00;20.00;;;;;-146.37;100.00;59337.28;6133614;23;45414;-82
2021/10/24 02:44:37;;;;;;;;;13.67;13.33;;;;;-146.37;100.00;59337.28;6131755;23;45380;-82
2021/10/24 02:47:03;;;;;;;;;25.00;23.33;;;;;-146.37;100.00;59337.28;6158189;23;45374;-83
2021/10/24 02:49:29;;;;;;;;;24.67;24.67;;;;;-146.37;100.00;59337.28;6132867;23;46867;-82
2021/10/24 02:51:56;;;;;;;;;23.67;23.00;;;;;-146.37;100.00;59337.28;6143695;23;45378;-83
2021/10/24 02:54:23;;;;;;;;;25.33;19.67;;;;;-146.37;100.00;59337.28;6131436;23;45400;-83
2021/10/24 02:57:05;;;;;;;;;;;;;;;;;;;;;
2021/10/24 02:59:31;;;;;;;;;23.67;22.33;;;;;-146.37;100.00;59337.28;6254285;22;75176;-83
2021/10/24 03:02:12;;;;;;;;;18.67;18.67;;;;;-146.37;100.00;59337.28;6253044;22;45443;-83
2021/10/24 03:04:46;;;;;;;;;23.00;22.67;;;;;-146.37;100.00;59337.28;6254335;22;45262;-83
2021/10/24 03:07:16;;;;;;;;;23.00;23.00;;;;;-146.37;100.00;59337.28;6226752;22;45418;-83
2021/10/24 03:09:42;;;;;;;;;24.33;23.00;;;;;-146.37;100.00;59337.28;6224797;22;47224;-82
2021/10/24 03:12:11;;;;;;;;;20.33;18.00;;;;;-146.37;100.00;59337.28;6225381;22;45457;-83
2021/10/24 03:14:37;;;;;;;;;22.00;19.67;;;;;-146.37;100.00;59337.28;6251537;22;45153;-83
2021/10/24 03:17:03;;;;;;;;;25.33;23.67;;;;;-146.37;100.00;59337.28;6226012;22;45334;-83
2021/10/24 03:19:30;;;;;;;;;23.00;23.00;;;;;-146.37;100.00;59337.28;6225958;22;47134;-83
2021/10/24 03:22:13;;;;;;;;;21.67;21.00;;;;;-146.37;100.00;59337.28;6226401;22;45406;-83
2021/10/24 03:24:39;;;;;;;;;29.33;23.33;;;;;-146.37;100.00;59337.28;6224120;22;45450;-83
2021/10/24 03:27:05;;;;;;;;;22.67;22.67;;;;;-146.37;100.00;59337.28;6221436;22;45649;-83
2021/10/24 03:29:31;;;;;;;;;24.00;22.00;;;;;-146.37;100.00;59337.28;6223757;22;47535;-83
2021/10/24 03:32:17;;;;;;;;;22.00;20.33;;;;;-146.37;100.00;59337.28;6253501;22;45480;-83
2021/10/24 03:35:33;;;;;;;;;;;;;;;;;;;;;
2021/10/24 03:38:23;;;;;;;;;19.00;17.33;;;;;-146.37;100.00;59337.28;6248980;22;65037;-82
2021/10/24 03:41:22;;;;;;;;;22.67;20.00;;;;;-146.37;100.00;59337.28;6224807;22;45368;-82
2021/10/24 03:44:17;;;;;;;;;20.00;18.33;;;;;-146.37;100.00;59337.28;6225886;22;45481;-82
2021/10/24 03:47:14;;;;;;;;;19.00;18.33;;;;;-146.37;100.00;59337.28;6227439;22;45736;-82
2021/10/24 03:55:54;;;;;;;;;17.00;17.00;;;;;-146.37;100.00;59337.28;6128817;23;45550;-82
2021/10/24 03:58:20;;;;;;;;;24.33;22.67;;;;;-146.37;100.00;59337.28;6105602;23;45508;-82
2021/10/24 04:00:45;;;;;;;;;20.67;20.00;;;;;-146.37;100.00;59337.28;6106212;23;45778;-83
2021/10/24 04:06:09;;;;;;;;;23.67;21.67;;;;;-146.37;100.00;59337.28;6110279;23;45317;-82
2021/10/24 04:08:35;;;;;;;;;23.33;22.33;;;;;-146.37;100.00;59337.28;6109140;23;44822;-82
2021/10/24 04:11:03;;;;;;;;;18.00;17.33;;;;;-146.37;100.00;59337.28;6107965;23;45275;-82
2021/10/24 04:13:29;;;;;;;;;25.33;23.33;;;;;-146.37;100.00;59337.28;6156704;23;46803;-82
2021/10/24 04:15:54;;;;;;;;;25.00;19.33;;;;;-146.37;100.00;59337.28;6105504;23;45791;-82
2021/10/24 04:18:23;;;;;;;;;22.33;20.67;;;;;-146.37;100.00;59337.28;6132660;23;45345;-83
2021/10/24 04:20:48;;;;;;;;;27.00;23.00;;;;;-146.37;100.00;59337.28;6131360;23;45362;-82
2021/10/24 04:23:16;;;;;;;;;21.67;21.67;;;;;-146.37;100.00;59337.28;6128599;23;45899;-82
2021/10/24 04:25:53;;;;;;;;;22.00;22.00;;;;;-146.37;100.00;59337.28;6140247;23;45448;-82
2021/10/24 04:28:30;;;;;;;;;24.67;18.67;;;;;-146.37;100.00;59337.28;6191253;22;45477;-83
2021/10/24 04:31:01;;;;;;;;;22.67;22.00;;;;;-146.37;100.00;59337.28;6183689;22;45548;-83
2021/10/24 04:33:30;;;;;;;;;19.67;19.00;;;;;-146.37;100.00;59337.28;6243467;22;45366;-83
2021/10/24 04:36:16;;;;;;;;;21.67;21.67;;;;;-146.37;100.00;59337.28;6226461;22;45675;-82
2021/10/24 04:38:48;;;;;;;;;20.67;18.67;;;;;-146.37;100.00;59337.28;6251860;22;45487;-82
2021/10/24 04:41:20;;;;;;;;;21.67;19.67;;;;;-146.37;100.00;59337.28;6226550;22;45358;-83
2021/10/24 04:43:51;;;;;;;;;19.00;18.00;;;;;-146.37;100.00;59337.28;6224587;22;46962;-83
2021/10/24 04:46:17;;;;;;;;;16.00;16.00;;;;;-146.37;100.00;59337.28;6225084;22;45326;-83
2021/10/24 04:49:08;;;;;;;;;18.67;16.67;;;;;-146.37;100.00;59337.28;6225796;22;45564;-83
2021/10/24 04:54:44;;;;;;;;;26.00;19.33;;;;;-146.37;100.00;59337.28;6112374;23;45402;-83
2021/10/24 04:57:09;;;;;;;;;22.00;16.67;;;;;-146.37;100.00;59337.28;6132797;23;45495;-83
2021/10/24 04:59:38;;;;;;;;;19.33;16.67;;;;;-146.37;100.00;59337.28;6157297;23;45393;-82
2021/10/24 05:02:31;;;;;;;;;16.67;15.33;;;;;-146.37;100.00;59337.28;6133115;23;45413;-82
2021/10/24 05:05:30;;;;;;;;;19.33;17.33;;;;;-146.37;100.00;59337.28;6133088;23;46560;-82
2021/10/24 05:08:11;;;;;;;;;14.67;13.00;;;;;-146.37;100.00;59337.28;6152173;23;45404;-82
2021/10/24 05:10:46;;;;;;;;;16.00;15.00;;;;;-146.37;100.00;59337.28;6156833;23;45365;-82
2021/10/24 05:13:34;;;;;;;;;16.67;16.33;;;;;-146.37;100.00;59337.28;6131944;23;45458;-82
2021/10/24 05:16:00;;;;;;;;;18.67;14.67;;;;;-146.37;100.00;59337.28;6132116;23;46618;-83
2021/10/24 05:19:15;;;;;;;;;18.00;15.00;;;;;-146.37;100.00;59337.28;6131525;23;45398;-82
2021/10/24 05:22:00;;;;;;;;;;;;;;;;;;;;;
2021/10/24 05:24:36;;;;;;;;;14.33;13.00;;;;;-146.37;100.00;59337.28;6156965;23;65950;-83
2021/10/24 05:27:17;;;;;;;;;16.00;14.33;;;;;-146.37;100.00;59337.28;6134400;23;46929;-83
2021/10/24 05:33:08;;;;;;;;;13.00;13.00;;;;;-146.37;100.00;59337.28;6253182;22;45618;-84
2021/10/24 05:35:34;;;;;;;;;17.67;17.00;;;;;-146.37;100.00;59337.28;6227077;22;45547;-82
2021/10/24 05:37:59;;;;;;;;;15.67;15.67;;;;;-146.37;100.00;59337.28;6225693;22;46297;-83
2021/10/24 05:40:27;;;;;;;;;12.00;12.00;;;;;-146.37;100.00;59337.28;6252794;22;45322;-83
2021/10/24 05:42:57;;;;;;;;;16.67;15.67;;;;;-146.37;100.00;59337.28;6249360;22;45362;-83
2021/10/24 05:45:43;;;;;;;;;;;;;;;;;;;;;
2021/10/24 05:48:11;;;;;;;;;15.33;15.33;;;;;-146.37;100.00;59337.28;6249699;22;75702;-83
2021/10/24 05:50:44;;;;;;;;;14.33;13.00;;;;;-146.37;100.00;59337.28;6251688;22;45457;-83
2021/10/24 05:53:12;;;;;;;;;16.33;15.67;;;;;-146.37;100.00;59337.28;6239982;22;44722;-82
2021/10/24 05:55:38;;;;;;;;;13.00;13.00;;;;;-146.37;100.00;59337.28;6263346;22;45766;-82
2021/10/24 05:58:07;;;;;;;;;17.00;16.33;;;;;-146.37;100.00;59337.28;6279367;22;46715;-83
2021/10/24 06:00:33;;;;;;;;;16.33;16.33;;;;;-146.37;100.00;59337.28;6278782;22;45384;-83
2021/10/24 06:03:43;;;;;;;;;19.00;16.00;;;;;-146.37;100.00;59337.28;6283148;22;45321;-83
2021/10/24 06:06:12;;;;;;;;;10.33;10.33;;;;;-146.37;100.00;59337.28;6134620;23;45503;-82
2021/10/24 06:08:41;;;;;;;;;12.33;12.00;;;;;-146.37;100.00;59337.28;6133403;23;46747;-84
2021/10/24 06:11:32;;;;;;;;;14.67;14.67;;;;;-146.37;100.00;59337.28;6134460;23;45505;-82
2021/10/24 06:13:58;;;;;;;;;18.00;15.00;;;;;-146.37;100.00;59337.28;6136356;23;45373;-81
2021/10/24 06:16:24;;;;;;;;;14.67;14.67;;;;;-146.37;100.00;59337.28;6160216;23;45262;-82
2021/10/24 06:18:50;;;;;;;;;17.33;17.33;;;;;-146.37;100.00;59337.28;6158326;23;46852;-82
2021/10/24 06:21:50;;;;;;;;;;;;;;;;;;;;;
2021/10/24 06:24:16;;;;;;;;;14.00;14.00;;;;;-146.37;100.00;59337.28;6156776;23;68850;-82
2021/10/24 06:26:44;;;;;;;;;13.00;13.00;;;;;-146.37;100.00;59337.28;6135804;23;45725;-84
2021/10/24 06:29:22;;;;;;;;;15.67;13.00;;;;;-146.37;100.00;59337.28;6161274;23;46288;-83
2021/10/24 06:32:15;;;;;;;;;;;;;;;;;;;;;
2021/10/24 06:34:51;;;;;;;;;13.00;13.00;;;;;-146.37;100.00;59337.28;6158727;23;67904;-82
2021/10/24 06:37:20;;;;;;;;;16.67;15.33;;;;;-146.37;100.00;59337.28;6134486;23;45366;-83
2021/10/24 06:40:06;;;;;;;;;14.00;12.67;;;;;-146.37;100.00;59337.28;6132193;23;45332;-82
2021/10/24 06:42:41;;;;;;;;;13.33;12.00;;;;;-146.37;100.00;59337.28;6241769;22;45365;-82
2021/10/24 06:45:30;;;;;;;;;;;;;;;;;;;;;
2021/10/24 06:47:59;;;;;;;;;18.00;15.00;;;;;-146.37;100.00;59337.28;6281137;22;65259;-82
2021/10/24 06:50:46;;;;;;;;;16.67;13.00;;;;;-146.37;100.00;59337.28;6231358;22;45378;-83
2021/10/24 06:53:14;;;;;;;;;10.33;10.33;;;;;-146.37;100.00;59337.28;6280590;22;45496;-82
2021/10/24 06:56:29;;;;;;;;;;;;;;;;;;;;;
2021/10/24 06:58:58;;;;;;;;;20.00;17.33;;;;;-146.37;100.00;59337.28;6280470;22;65078;-83
2021/10/24 07:01:26;;;;;;;;;13.00;11.67;;;;;-146.37;100.00;59337.28;6254784;22;47110;-83
2021/10/24 07:03:55;;;;;;;;;11.33;11.33;;;;;-146.37;100.00;59337.28;6255223;22;44746;-82
2021/10/24 07:06:23;;;;;;;;;13.00;11.00;;;;;-146.37;100.00;59337.28;6282697;22;45448;-83
2021/10/24 07:09:09;;;;;;;;;15.33;14.67;;;;;-146.37;100.00;59337.28;6256544;22;45686;-82
2021/10/24 07:11:47;;;;;;;;;17.33;13.00;;;;;-146.37;100.00;59337.28;6252396;22;46758;-81
2021/10/24 07:14:24;;;;;;;;;19.33;18.00;;;;;-146.37;100.00;59337.28;6282081;22;45365;-82
2021/10/24 07:16:59;;;;;;;;;18.00;15.67;;;;;-146.37;100.00;59337.28;6254816;22;45347;-83
2021/10/24 07:19:24;;;;;;;;;20.00;17.67;;;;;-146.37;100.00;59337.28;6251091;22;44819;-83
2021/10/24 07:22:49;;;;;;;;;;;;;;;;;;;;;
2021/10/24 07:25:22;;;;;;;;;13.33;13.33;;;;;-146.37;100.00;59337.28;6154210;23;73007;-83
2021/10/24 07:27:50;;;;;;;;;17.00;15.67;;;;;-146.37;100.00;59337.28;6180663;23;44859;-83
2021/10/24 07:30:21;;;;;;;;;11.67;11.00;;;;;-146.37;100.00;59337.28;6130374;23;45631;-83
2021/10/24 07:32:58;;;;;;;;;14.67;14.67;;;;;-146.37;100.00;59337.28;6180345;23;47349;-83
2021/10/24 07:35:24;;;;;;;;;16.00;16.00;;;;;-146.37;100.00;59337.28;6130853;23;45882;-83
2021/10/24 07:37:52;;;;;;;;;15.67;14.00;;;;;-146.37;100.00;59337.28;6181749;23;45442;-83
2021/10/24 07:40:18;;;;;;;;;16.33;15.00;;;;;-146.37;100.00;59337.28;6181444;23;45462;-83
2021/10/24 07:43:24;;;;;;;;;18.00;15.33;;;;;-146.37;100.00;59337.28;6181161;22;46786;-83
2021/10/24 07:46:00;;;;;;;;;20.00;19.00;;;;;-146.37;100.00;59337.28;6177915;23;44749;-83
2021/10/24 07:51:30;;;;;;;;;15.33;14.67;;;;;-146.37;100.00;59337.28;6098164;23;45435;-84
2021/10/24 07:54:31;;;;;;;;;13.33;12.67;;;;;-146.37;100.00;59337.28;6098698;23;45825;-83
2021/10/24 07:56:57;;;;;;;;;14.33;13.33;;;;;-146.37;100.00;59337.28;6099439;23;45847;-83
2021/10/24 07:59:22;;;;;;;;;13.00;11.00;;;;;-146.37;100.00;59337.28;6074468;23;45456;-83
2021/10/24 08:01:48;;;;;;;;;15.33;14.33;;;;;-146.37;100.00;59337.28;6105028;23;45971;-83
2021/10/24 08:04:17;;;;;;;;;16.67;15.67;;;;;-146.37;100.00;59337.28;6159283;23;48095;-83
2021/10/24 08:06:46;;;;;;;;;19.67;16.67;;;;;-146.37;100.00;59337.28;6134192;23;45346;-83
2021/10/24 08:09:12;;;;;;;;;15.00;15.00;;;;;-146.37;100.00;59337.28;6135935;23;45508;-83
2021/10/24 08:11:39;;;;;;;;;17.00;17.00;;;;;-146.37;100.00;59337.28;6159527;22;44880;-83
2021/10/24 08:14:13;;;;;;;;;22.67;17.00;;;;;-146.37;100.00;59337.28;6159000;23;45980;-83
2021/10/24 08:17:04;;;;;;;;;10.67;10.67;;;;;-146.37;100.00;59337.28;6133176;23;45482;-83
2021/10/24 08:19:58;;;;;;;;;;;;;;;;;;;;;
2021/10/24 08:22:34;;;;;;;;;16.00;14.67;;;;;-146.37;100.00;59337.28;6157151;23;64989;-82
2021/10/24 08:25:03;;;;;;;;;13.00;13.00;;;;;-146.37;100.00;59337.28;6158257;23;46740;-82
2021/10/24 08:27:44;;;;;;;;;13.67;13.67;;;;;-146.37;100.00;59337.28;6141451;22;45436;-82
2021/10/24 08:30:25;;;;;;;;;15.67;15.67;;;;;-146.37;100.00;59337.28;6227715;22;45371;-81
2021/10/24 08:32:51;;;;;;;;;13.33;12.00;;;;;-146.37;100.00;59337.28;6226879;22;45240;-82
2021/10/24 08:35:22;;;;;;;;;16.33;16.33;;;;;-146.37;100.00;59337.28;6225308;22;47824;-81
2021/10/24 08:37:53;;;;;;;;;17.33;14.33;;;;;-146.37;100.00;59337.28;6249734;22;45286;-81
2021/10/24 08:40:46;;;;;;;;;18.33;18.33;;;;;-146.37;100.00;59337.28;6230419;22;45453;-82
2021/10/24 08:43:34;;;;;;;;;17.00;16.67;;;;;-146.37;100.00;59337.28;6285577;22;45329;-82
2021/10/24 08:46:11;;;;;;;;;21.67;19.67;;;;;-146.37;100.00;59337.28;6287072;22;47733;-82
2021/10/24 08:51:38;;;;;;;;;21.00;18.00;;;;;-146.37;100.00;59337.28;6315942;22;45271;-83
2021/10/24 08:54:15;;;;;;;;;17.67;17.67;;;;;-146.37;100.00;59337.28;6283657;22;44808;-82
2021/10/24 08:56:49;;;;;;;;;22.67;18.67;;;;;-146.37;100.00;59337.28;6287748;22;46627;-82
2021/10/24 08:59:41;;;;;;;;;20.00;18.00;;;;;-146.37;100.00;59337.28;6316831;22;45444;-83
2021/10/24 09:05:48;;;;;;;;;18.67;17.00;;;;;-146.37;100.00;59337.28;6202116;22;45439;-83
2021/10/24 09:08:27;;;;;;;;;17.00;16.67;;;;;-146.37;100.00;59337.28;6285153;22;48163;-83
2021/10/24 09:11:02;;;;;;;;;14.00;14.00;;;;;-146.37;100.00;59337.28;6285334;22;45429;-83
2021/10/24 09:13:44;;;;;;;;;17.67;16.00;;;;;-146.37;100.00;59337.28;6284734;22;45501;-83
2021/10/24 09:19:56;;;;;;;;;;;;;;;;;;;;;
2021/10/24 09:22:36;;;;;;;;;14.67;14.67;;;;;-146.37;100.00;59337.28;6313950;22;72042;-83
2021/10/24 09:25:14;;;;;;;;;16.67;14.67;;;;;-146.37;100.00;59337.28;6285632;22;45524;-83
2021/10/24 09:28:36;;;;;;;;;;;;;;;;;;;;;
2021/10/24 09:31:55;;;;;;;;;22.00;22.00;;;;;-146.37;100.00;59337.28;6176203;23;74365;-83
2021/10/24 09:35:05;;;;;;;;;18.33;15.00;;;;;-146.37;100.00;59337.28;6191334;23;45240;-83
2021/10/24 09:37:41;;;;;;;;;;;;;;;;;;;;;
2021/10/24 09:40:10;;;;;;;;;24.33;20.67;;;;;-146.37;100.00;59337.28;6190540;22;64262;-83
2021/10/24 09:42:44;;;;;;;;;19.00;18.67;;;;;-146.37;100.00;59337.28;6188855;23;46545;-83
2021/10/24 09:45:24;;;;;;;;;16.67;16.33;;;;;-146.37;100.00;59337.28;6192116;22;45288;-83
2021/10/24 09:47:52;;;;;;;;;16.00;16.00;;;;;-146.37;100.00;59337.28;6164883;23;44786;-83
2021/10/24 09:50:57;;;;;;;;;14.00;13.33;;;;;-146.37;100.00;59337.28;6164415;23;45371;-83
2021/10/24 09:53:32;;;;;;;;;17.00;16.33;;;;;-146.37;100.00;59337.28;6187280;22;47892;-83
2021/10/24 09:56:00;;;;;;;;;15.67;15.67;;;;;-146.37;100.00;59337.28;6176713;23;45416;-83
2021/10/24 09:58:32;;;;;;;;;13.33;13.33;;;;;-146.37;100.00;59337.28;6161472;23;45551;-83
2021/10/24 10:01:09;;;;;;;;;16.00;14.33;;;;;-146.37;100.00;59337.28;6195975;22;45957;-83
2021/10/24 10:03:39;;;;;;;;;16.33;16.33;;;;;-146.37;100.00;59337.28;6313844;22;46313;-83
2021/10/24 10:06:05;;;;;;;;;15.33;15.33;;;;;-146.37;100.00;59337.28;6287221;22;45376;-83
2021/10/24 10:08:31;;;;;;;;;16.00;16.00;;;;;-146.37;100.00;59337.28;6286198;22;44850;-83
2021/10/24 10:11:05;;;;;;;;;19.67;17.67;;;;;-146.37;100.00;59337.28;6314025;22;45245;-83
2021/10/24 10:13:46;;;;;;;;;15.33;15.00;;;;;-146.37;100.00;59337.28;6287455;22;48210;-84
2021/10/24 10:16:15;;;;;;;;;16.67;15.00;;;;;-146.37;100.00;59337.28;6287198;22;44838;-83
2021/10/24 10:19:12;;;;;;;;;13.00;10.00;;;;;-146.37;100.00;59337.28;6288796;22;45306;-84
2021/10/24 10:21:47;;;;;;;;;18.67;16.00;;;;;-146.37;100.00;59337.28;6285800;22;45362;-83
2021/10/24 10:24:47;;;;;;;;;15.67;14.00;;;;;-146.37;100.00;59337.28;6289809;22;46937;-83
2021/10/24 10:27:39;;;;;;;;;15.00;14.00;;;;;-146.37;100.00;59337.28;6235365;22;45426;-84
2021/10/24 10:30:09;;;;;;;;;17.33;17.00;;;;;-146.37;100.00;59337.28;6288773;22;45383;-82
2021/10/24 10:32:44;;;;;;;;;14.33;14.33;;;;;-146.37;100.00;59337.28;6287423;22;45267;-83
2021/10/24 10:35:17;;;;;;;;;17.67;16.33;;;;;-146.37;100.00;59337.28;6287009;22;45373;-83
2021/10/24 10:37:51;;;;;;;;;15.00;14.00;;;;;-146.37;100.00;59337.28;6316091;22;45827;-82
2021/10/24 10:40:39;;;;;;;;;15.33;15.33;;;;;-146.37;100.00;59337.28;6286441;22;45887;-83
2021/10/24 10:43:33;;;;;;;;;18.67;16.00;;;;;-146.37;100.00;59337.28;6275468;22;45403;-83
2021/10/24 10:46:14;;;;;;;;;16.00;16.00;;;;;-146.37;100.00;59337.28;6287777;22;45399;-83
2021/10/24 10:49:32;;;;;;;;;20.00;17.33;;;;;-146.37;100.00;59337.28;6287113;22;45429;-83
2021/10/24 10:52:42;;;;;;;;;19.67;17.00;;;;;-146.37;100.00;59337.28;6287434;22;45444;-84
2021/10/24 10:55:14;;;;;;;;;15.67;14.67;;;;;-146.37;100.00;59337.28;6276986;22;45510;-83
2021/10/24 10:58:33;;;;;;;;;16.67;15.33;;;;;-146.37;100.00;59337.28;6285729;22;47112;-84
2021/10/24 11:07:56;;;;;;;;;;;;;;;;;;;;;
2021/10/24 11:10:50;;;;;;;;;11.33;11.33;;;;;-146.37;100.00;59337.28;6313584;22;74008;-83
2021/10/24 11:13:51;;;;;;;;;16.00;15.00;;;;;-146.37;100.00;59337.28;6286464;22;45380;-83
2021/10/24 11:16:35;;;;;;;;;12.67;12.67;;;;;-146.37;100.00;59337.28;6279141;22;44732;-83
2021/10/24 11:19:29;;;;;;;;;15.33;12.33;;;;;-146.37;100.00;59337.28;6315396;22;45361;-83
2021/10/24 11:22:09;;;;;;;;;17.67;13.33;;;;;-146.37;100.00;59337.28;6302248;22;45366;-83
2021/10/24 11:24:49;;;;;;;;;10.00;10.00;;;;;-146.37;100.00;59337.28;6315729;22;45421;-83
2021/10/24 11:27:41;;;;;;;;;16.00;13.33;;;;;-146.37;100.00;59337.28;6288104;22;44811;-84
2021/10/24 11:30:43;;;;;;;;;;;;;;;;;;;;;
2021/10/24 11:37:13;;;;;;;;;;;;;;;;;;;;;
2021/10/24 11:39:55;;;;;;;;;13.67;13.00;;;;;-146.37;100.00;59337.28;6313218;22;68023;-83
2021/10/24 11:42:31;;;;;;;;;15.00;14.00;;;;;-146.37;100.00;59337.28;6284187;22;45602;-83
2021/10/24 11:44:57;;;;;;;;;11.00;10.33;;;;;-146.37;100.00;59337.28;6312812;22;45521;-83
2021/10/24 11:47:22;;;;;;;;;12.00;11.00;;;;;-146.37;100.00;59337.28;6288343;22;45321;-83
2021/10/24 11:49:52;;;;;;;;;14.33;14.00;;;;;-146.37;100.00;59337.28;6286301;22;45420;-84
2021/10/24 11:52:31;;;;;;;;;14.67;14.67;;;;;-146.37;100.00;59337.28;6314092;22;45424;-84
2021/10/24 11:55:10;;;;;;;;;17.67;15.33;;;;;-146.37;100.00;59337.28;6284901;22;47109;-84
2021/10/24 12:00:21;;;;;;;;;12.00;12.00;;;;;-146.37;100.00;59337.28;6313179;22;45701;-83
2021/10/24 12:03:07;;;;;;;;;14.33;14.33;;;;;-146.37;100.00;59337.28;6286803;22;45353;-83
2021/10/24 12:05:38;;;;;;;;;11.67;11.67;;;;;-146.37;100.00;59337.28;6284925;22;45610;-83
2021/10/24 12:08:38;;;;;;;;;13.00;13.00;;;;;-146.37;100.00;59337.28;6277380;22;45433;-84
2021/10/24 12:11:24;;;;;;;;;12.67;12.00;;;;;-146.37;100.00;59337.28;6123872;23;45862;-83
2021/10/24 12:13:51;;;;;;;;;13.00;13.00;;;;;-146.37;100.00;59337.28;6100057;23;45358;-84
2021/10/24 12:19:39;;;;;;;;;12.00;12.00;;;;;-146.37;100.00;59337.28;6107944;23;45377;-83
2021/10/24 12:22:50;;;;;;;;;12.67;12.00;;;;;-146.37;100.00;59337.28;6124928;23;45665;-83
2021/10/24 12:26:13;;;;;;;;;;;;;;;;;;;;;
2021/10/24 12:28:43;;;;;;;;;10.67;10.67;;;;;-146.37;100.00;59337.28;6126310;23;75002;-83
2021/10/24 12:31:17;;;;;;;;;10.00;10.00;;;;;-146.37;100.00;59337.28;6102345;23;45375;-83
2021/10/24 12:34:03;;;;;;;;;13.67;11.67;;;;;-146.37;100.00;59337.28;6099534;23;45405;-83
2021/10/24 12:36:33;;;;;;;;;10.00;10.00;;;;;-146.37;100.00;59337.28;6103465;23;45713;-83
2021/10/24 12:39:23;;;;;;;;;13.00;13.00;;;;;-146.37;100.00;59337.28;6127036;23;45864;-83
2021/10/24 12:42:37;;;;;;;;;;;;;;;;;;;;;
2021/10/24 12:45:14;;;;;;;;;12.67;12.00;;;;;-146.37;100.00;59337.28;6123850;23;68308;-83
2021/10/24 12:48:04;;;;;;;;;12.33;12.33;;;;;-146.37;100.00;59337.28;6183681;22;45670;-83
2021/10/24 12:50:46;;;;;;;;;11.00;11.00;;;;;-146.37;100.00;59337.28;6279643;22;47040;-82
2021/10/24 12:53:39;;;;;;;;;13.33;13.33;;;;;-146.37;100.00;59337.28;6253771;22;45865;-84
2021/10/24 12:56:50;;;;;;;;;;;;;;;;;;;;;
2021/10/24 12:59:43;;;;;;;;;12.33;12.33;;;;;-146.37;100.00;59337.28;6153333;23;65118;-83
2021/10/24 13:02:35;;;;;;;;;10.67;10.67;;;;;-146.37;100.00;59337.28;6156472;23;46708;-83
2021/10/24 13:05:00;;;;;;;;;8.67;8.67;;;;;-146.37;100.00;59337.28;6158359;23;45735;-83